AKDT,Max TemperatureF,Mean TemperatureF,Min TemperatureF,Max Dew PointF,MeanDew PointF,Min DewpointF,Max Humidity, Mean Humidity, Min Humidity, Max Sea Level PressureIn, Mean Sea Level PressureIn, Min Sea Level PressureIn, Max VisibilityMiles, Mean VisibilityMiles, Min VisibilityMiles, Max Wind SpeedMPH, Mean Wind SpeedMPH, Max Gust SpeedMPH,PrecipitationIn, CloudCover, Events, WindDirDegrees
2013-8-1,84,65,46,52,48,43,89,55,25,30.05,29.97,29.87,10,10,10,8,1,,0.00,0,,30
2013-8-2,89,66,43,52,46,40,89,50,23,29.92,29.84,29.75,10,10,10,9,3,21,0.00,0,,135
2013-8-3,84,64,46,48,42,35,86,45,19,29.78,29.73,29.69,10,10,10,10,3,21,0.00,1,,179
2013-8-4,82,67,52,47,44,40,71,44,23,29.86,29.79,29.75,10,10,10,9,3,20,0.00,3,,171
2013-8-5,70,58,46,55,49,43,89,72,47,29.97,29.92,29.87,10,10,10,5,1,,0.02,3,Rain,46
2013-8-6,82,60,37,50,44,36,97,60,23,30.04,29.98,29.90,10,10,10,9,2,,0.00,2,,111
2013-8-7,79,60,41,59,48,38,93,67,35,29.93,29.83,29.72,10,10,7,14,2,25,0.02,3,,133
2013-8-8,81,62,44,56,46,43,100,66,30,29.74,29.72,29.69,10,9,2,13,3,23,0.01,1,,138
2013-8-9,81,64,48,49,46,40,83,49,25,29.76,29.71,29.64,10,10,10,12,3,20,0.00,2,Rain,139
2013-8-10,82,66,51,50,47,43,74,47,29,29.90,29.79,29.69,10,10,10,9,3,17,0.00,4,,128
2013-8-11,82,72,57,54,49,45,75,49,34,30.04,29.98,29.91,10,8,5,7,2,,0.00,3,,295
2013-8-12,90,68,46,54,50,43,93,56,23,29.99,29.93,29.85,10,10,7,7,1,,0.00,0,,35
2013-8-13,84,68,53,56,53,48,84,60,34,29.95,29.89,29.81,10,10,8,6,2,,0.00,1,,305
2013-8-14,82,66,53,59,55,51,97,69,36,29.86,29.79,29.69,10,8,2,9,3,,0.10,2,Rain,303
2013-8-15,80,65,50,55,53,48,93,68,42,29.81,29.74,29.65,10,10,8,7,1,,0.00,4,,6
2013-8-16,77,64,52,57,54,47,97,73,41,29.72,29.64,29.57,10,10,6,9,2,,0.06,2,Rain,308
2013-8-17,71,57,43,59,51,41,97,81,53,29.65,29.59,29.48,10,9,5,5,0,,0.10,5,Rain,50
2013-8-18,64,58,53,55,53,50,100,85,67,29.53,29.48,29.44,10,9,2,10,2,18,0.52,8,Rain,289
2013-8-19,69,60,51,53,51,46,100,81,45,29.62,29.57,29.53,10,10,8,5,0,,0.06,7,Rain,29
2013-8-20,61,54,48,52,48,47,96,85,67,29.75,29.68,29.63,10,9,2,9,3,28,0.39,8,Rain,136
2013-8-21,59,47,35,48,43,33,97,83,53,29.81,29.77,29.72,10,9,2,6,1,,0.03,5,Rain,12
2013-8-22,66,47,28,44,35,28,100,82,38,29.75,29.69,29.59,10,7,0,7,1,,0.00,3,Fog,319
2013-8-23,55,44,34,54,46,32,97,89,80,29.63,29.54,29.51,10,9,4,8,1,,0.22,7,Rain,21
2013-8-24,53,44,32,39,32,27,82,58,43,29.96,29.81,29.64,10,10,10,15,6,24,0.00,6,,14
2013-8-25,55,42,30,33,30,27,89,68,40,29.98,29.92,29.82,10,10,10,4,1,,0.00,5,,197
2013-8-26,59,42,28,35,30,26,92,67,36,29.92,29.89,29.86,10,10,10,7,1,,0.00,2,,41
2013-8-27,64,43,23,37,30,20,92,65,31,29.93,29.84,29.73,10,10,10,9,2,,0.00,0,,123
2013-8-28,62,46,30,47,39,28,93,70,43,29.74,29.71,29.69,10,10,10,12,2,21,0.01,5,Rain,131
2013-8-29,66,52,41,52,46,39,97,82,50,29.80,29.73,29.69,10,9,2,10,2,,0.20,5,Rain,112
2013-8-30,55,50,44,52,48,42,100,92,82,29.93,29.87,29.79,10,10,2,5,0,,0.18,7,Rain,287
2013-8-31,46,41,36,43,39,33,97,84,71,29.97,29.94,29.91,10,10,6,8,2,,0.16,7,Rain,273